Time;durP1;ratioP1;P1;durP2;ratioP2;P2;SDS_P1;SDS_P2;PMS_P1;PMS_P2;Temp;Humidity;BMP_temperature;BMP_pressure;BME280_temperature;BME280_humidity;BME280_pressure;Samples;Min_cycle;Max_cycle;Signal;HPM_P1;HPM_P2
2021/08/25 00:02:22;;;;;;;8.07;4.65;;;;;;;17.38;71.18;96867.56;5064522;28;20048;-65
2021/08/25 00:04:49;;;;;;;7.80;4.97;;;;;;;17.66;71.06;96920.44;5063396;28;20106;-65
2021/08/25 00:07:16;;;;;;;7.78;5.10;;;;;;;17.51;71.71;96910.66;5062901;28;20057;-62
2021/08/25 00:09:43;;;;;;;8.68;5.05;;;;;;;17.50;72.07;96914.66;5064759;28;20059;-65
2021/08/25 00:12:11;;;;;;;6.30;5.07;;;;;;;17.47;72.52;96904.28;5080168;28;20056;-66
2021/08/25 00:14:40;;;;;;;7.40;5.05;;;;;;;17.45;72.26;96903.94;5085201;28;20047;-61
2021/08/25 00:17:08;;;;;;;6.20;5.32;;;;;;;17.04;71.87;96824.81;5084780;28;20059;-66
2021/08/25 00:19:35;;;;;;;5.40;4.88;;;;;;;17.17;72.01;96873.41;5084721;28;20051;-60
2021/08/25 00:22:03;;;;;;;6.57;5.22;;;;;;;17.42;72.32;96899.13;5084649;28;20044;-66
2021/08/25 00:24:29;;;;;;;8.00;5.15;;;;;;;17.19;72.91;96888.59;5084635;28;20056;-65
2021/08/25 00:26:56;;;;;;;7.28;4.60;;;;;;;17.26;72.96;96901.72;5082989;28;20059;-61
2021/08/25 00:29:23;;;;;;;6.47;5.25;;;;;;;16.90;73.20;96847.34;5082983;28;20048;-66
2021/08/25 00:31:50;;;;;;;6.28;5.05;;;;;;;17.24;72.97;96895.72;5084656;28;20052;-66
2021/08/25 00:34:16;;;;;;;5.03;4.53;;;;;;;17.23;72.79;96894.94;5084614;28;20059;-62
2021/08/25 00:36:43;;;;;;;5.07;4.57;;;;;;;16.97;73.15;96864.03;5084326;28;20048;-66
2021/08/25 00:39:10;;;;;;;6.05;4.88;;;;;;;17.17;72.60;96901.41;5084290;28;20434;-60
2021/08/25 00:41:36;;;;;;;7.40;4.68;;;;;;;17.10;73.01;96890.28;5083904;28;20063;-60
2021/08/25 00:44:03;;;;;;;6.82;5.13;;;;;;;17.13;72.63;96903.47;5084177;28;20052;-66
2021/08/25 00:46:32;;;;;;;6.43;4.50;;;;;;;16.87;73.13;96871.34;5082628;28;20077;-62
2021/08/25 00:48:59;;;;;;;4.97;4.40;;;;;;;16.95;73.42;96900.84;5083451;28;20052;-61
2021/08/25 00:51:26;;;;;;;6.10;4.32;;;;;;;16.01;74.02;96785.84;5082857;28;20047;-62
2021/08/25 00:53:52;;;;;;;9.35;6.50;;;;;;;16.71;74.31;96881.50;5084588;28;20055;-60
2021/08/25 00:56:23;;;;;;;9.00;6.93;;;;;;;16.61;78.05;96889.56;5082668;28;20067;-61
2021/08/25 00:58:51;;;;;;;8.32;6.78;;;;;;;16.54;78.99;96889.66;5082703;28;20055;-60
2021/08/25 01:01:39;;;;;;;10.82;6.38;;;;;;;16.43;79.59;96880.53;5084177;28;20533;-61
2021/08/25 01:04:12;;;;;;;10.25;6.72;;;;;;;16.29;80.17;96880.66;5082466;28;20131;-61
2021/08/25 01:06:39;;;;;;;9.15;6.10;;;;;;;16.37;80.32;96871.00;5083480;28;20427;-66
2021/08/25 01:09:06;;;;;;;7.70;6.43;;;;;;;16.10;79.76;96816.91;5083669;28;20056;-61
2021/08/25 01:11:34;;;;;;;9.77;6.90;;;;;;;16.51;79.48;96873.69;5073836;28;20057;-62
2021/08/25 01:14:04;;;;;;;6.70;5.07;;;;;;;16.18;77.64;96815.66;5062540;28;20131;-60
2021/08/25 01:16:31;;;;;;;7.50;5.10;;;;;;;16.59;75.72;96871.63;5064036;28;20077;-61
2021/08/25 01:18:59;;;;;;;6.28;5.45;;;;;;;16.00;74.89;96770.28;5063756;28;20060;-66
2021/08/25 01:21:27;;;;;;;6.15;5.10;;;;;;;16.77;74.02;96865.88;5063618;28;20439;-65
2021/08/25 01:23:54;;;;;;;5.05;4.50;;;;;;;16.36;73.85;96802.28;5063523;28;20412;-61
2021/08/25 01:26:21;;;;;;;7.03;4.80;;;;;;;16.70;73.66;96860.31;5063007;28;20052;-61
2021/08/25 01:28:56;;;;;;;8.93;5.32;;;;;;;16.35;73.64;96813.91;5062010;28;20079;-60
2021/08/25 01:31:26;;;;;;;5.07;4.57;;;;;;;16.76;73.25;96850.28;5062228;28;20063;-66
2021/08/25 01:34:11;;;;;;;6.05;4.18;;;;;;;16.70;73.04;96860.31;5064070;28;20067;-65
2021/08/25 01:36:38;;;;;;;7.93;4.70;;;;;;;16.67;72.76;96861.97;5063686;28;20048;-65
2021/08/25 01:39:05;;;;;;;6.20;4.68;;;;;;;16.74;72.43;96861.09;5063632;28;20227;-61
2021/08/25 01:41:31;;;;;;;9.52;4.30;;;;;;;16.68;72.09;96851.56;5063427;28;20056;-66
2021/08/25 01:44:00;;;;;;;5.53;3.97;;;;;;;16.72;71.74;96863.50;5063218;28;20053;-65
2021/08/25 01:46:29;;;;;;;8.57;4.57;;;;;;;16.66;71.53;96865.19;5062740;28;20059;-60
2021/08/25 01:48:57;;;;;;;5.32;4.35;;;;;;;16.73;71.21;96865.09;5061985;28;20495;-60
2021/08/25 01:51:28;;;;;;;6.00;4.43;;;;;;;16.70;71.09;96860.31;5063299;28;20052;-66
2021/08/25 01:53:55;;;;;;;6.13;4.80;;;;;;;16.66;70.78;96870.75;5063456;28;20541;-61
2021/08/25 01:56:22;;;;;;;7.60;4.70;;;;;;;16.28;71.20;96811.94;5063741;28;20040;-65
2021/08/25 01:58:49;;;;;;;6.35;4.57;;;;;;;16.53;71.72;96857.28;5062854;28;20499;-67
2021/08/25 02:01:16;;;;;;;9.52;4.90;;;;;;;16.55;71.47;96854.06;5066912;28;20056;-66
2021/08/25 02:03:43;;;;;;;5.82;4.20;;;;;;;16.42;71.28;96856.56;5067287;28;20167;-66
2021/08/25 02:06:09;;;;;;;6.57;4.70;;;;;;;15.75;72.19;96778.06;5065522;28;20431;-66
2021/08/25 02:08:36;;;;;;;7.53;4.32;;;;;;;16.10;71.79;96828.09;5067058;28;20057;-62
2021/08/25 02:11:03;;;;;;;5.35;4.25;;;;;;;16.33;71.28;96853.44;5071994;28;20248;-66
2021/08/25 02:13:30;;;;;;;6.70;4.63;;;;;;;16.21;71.93;96856.75;5087171;28;20063;-65
2021/08/25 02:15:57;;;;;;;7.72;4.65;;;;;;;16.22;71.81;96857.53;5085388;28;20063;-60
2021/08/25 02:18:24;;;;;;;8.18;4.75;;;;;;;16.23;71.73;96854.31;5087069;28;20056;-61
2021/08/25 02:20:50;;;;;;;6.55;5.07;;;;;;;16.26;72.36;96859.13;5085230;28;20521;-65
2021/08/25 02:23:17;;;;;;;7.90;6.07;;;;;;;16.19;72.58;96855.56;5085600;28;20055;-64
2021/08/25 02:25:44;;;;;;;7.63;6.15;;;;;;;15.61;72.78;96755.03;5086679;28;20509;-60
2021/08/25 02:28:10;;;;;;;6.82;5.18;;;;;;;16.25;72.38;96851.91;5086909;28;20055;-66
2021/08/25 02:30:37;;;;;;;6.00;5.32;;;;;;;16.34;72.15;96849.44;5087192;28;20059;-60
2021/08/25 02:33:04;;;;;;;6.53;5.30;;;;;;;16.30;73.58;96857.06;5086854;28;20048;-66
2021/08/25 02:35:32;;;;;;;7.20;5.20;;;;;;;16.37;71.92;96859.00;5086918;28;20055;-65
2021/08/25 02:37:59;;;;;;;7.10;4.95;;;;;;;15.93;71.60;96784.31;5085373;28;20063;-65
2021/08/25 02:40:26;;;;;;;6.20;4.63;;;;;;;16.19;72.83;96853.56;5086641;28;20058;-65
2021/08/25 02:42:53;;;;;;;8.25;4.57;;;;;;;16.06;71.79;96810.53;5086515;28;20063;-60
2021/08/25 02:45:19;;;;;;;5.40;4.10;;;;;;;16.25;70.94;96843.53;5086305;28;20442;-65
2021/08/25 02:47:46;;;;;;;7.28;4.80;;;;;;;16.15;70.36;96852.81;5086783;28;20066;-62
2021/08/25 02:50:13;;;;;;;5.20;4.70;;;;;;;15.75;70.91;96789.25;5085329;28;20522;-61
2021/08/25 02:52:40;;;;;;;5.60;4.35;;;;;;;15.82;70.48;96797.56;5085198;28;20442;-61
2021/08/25 02:55:07;;;;;;;5.22;4.10;;;;;;;16.03;69.87;96825.34;5086160;28;20052;-65
2021/08/25 02:57:34;;;;;;;5.60;4.18;;;;;;;15.99;69.46;96824.59;5086027;28;20040;-61
2021/08/25 03:00:00;;;;;;;6.85;4.35;;;;;;;15.84;70.89;96830.69;5086287;28;20052;-61
2021/08/25 03:02:27;;;;;;;4.97;3.65;;;;;;;15.35;70.23;96745.22;5086101;28;20055;-64
2021/08/25 03:04:54;;;;;;;5.57;4.38;;;;;;;15.72;69.59;96790.06;5086048;28;20075;-64
2021/08/25 03:07:21;;;;;;;6.68;4.00;;;;;;;15.90;69.36;96834.63;5086346;28;20054;-60
2021/08/25 03:09:48;;;;;;;5.28;4.30;;;;;;;15.83;69.58;96835.47;5084369;28;20055;-63
2021/08/25 03:12:14;;;;;;;6.60;4.35;;;;;;;15.74;69.93;96837.13;5069903;28;20530;-60
2021/08/25 03:14:41;;;;;;;6.57;4.40;;;;;;;15.80;70.03;96855.84;5064039;28;20056;-61
2021/08/25 03:17:10;;;;;;;6.63;4.32;;;;;;;15.59;70.09;96802.91;5065712;28;20508;-62
2021/08/25 03:19:36;;;;;;;6.28;4.40;;;;;;;15.50;69.77;96783.03;5065571;28;20362;-63
2021/08/25 03:22:03;;;;;;;7.68;4.68;;;;;;;15.62;70.22;96838.41;5065743;28;20048;-64
2021/08/25 03:24:30;;;;;;;5.38;4.47;;;;;;;15.80;70.59;96855.84;5065762;28;20057;-65
2021/08/25 03:26:57;;;;;;;5.30;4.63;;;;;;;15.69;71.49;96843.94;5063954;28;20056;-61
2021/08/25 03:29:23;;;;;;;7.95;5.32;;;;;;;15.79;72.19;96862.63;5063706;28;20458;-61
2021/08/25 03:31:50;;;;;;;7.40;5.22;;;;;;;15.75;73.45;96863.84;5063737;28;20060;-64
2021/08/25 03:34:17;;;;;;;8.88;6.03;;;;;;;15.83;73.86;96869.00;5065364;28;20056;-62
2021/08/25 03:36:44;;;;;;;8.93;6.00;;;;;;;15.86;73.74;96868.19;5064873;28;20621;-64
2021/08/25 03:39:11;;;;;;;10.60;5.93;;;;;;;15.93;73.60;96873.69;5063557;28;20056;-61
2021/08/25 03:41:37;;;;;;;11.88;5.68;;;;;;;15.95;73.71;96867.72;5065251;28;20547;-65
2021/08/25 03:44:04;;;;;;;6.75;5.15;;;;;;;15.61;71.54;96811.69;5065429;28;20045;-64
2021/08/25 03:46:31;;;;;;;8.15;4.50;;;;;;;16.00;70.68;96862.50;5063555;28;20049;-60
2021/08/25 03:48:58;;;;;;;5.63;4.78;;;;;;;16.04;70.38;96868.88;5064811;28;20056;-60
2021/08/25 03:51:25;;;;;;;9.98;4.90;;;;;;;15.98;69.92;96864.88;5065076;28;20074;-61
2021/08/25 03:53:52;;;;;;;7.65;4.68;;;;;;;15.44;69.84;96784.69;5064885;28;20082;-60
2021/08/25 03:56:18;;;;;;;6.38;4.50;;;;;;;15.99;69.65;96874.88;5063588;28;20044;-60
2021/08/25 03:58:45;;;;;;;7.78;4.65;;;;;;;16.04;68.98;96874.44;5064369;28;20053;-61
2021/08/25 04:01:12;;;;;;;12.23;5.00;;;;;;;16.01;68.83;96874.47;5063689;28;20052;-64
2021/08/25 04:03:38;;;;;;;10.77;4.68;;;;;;;16.02;68.96;96878.84;5064943;28;20580;-65
2021/08/25 04:06:05;;;;;;;10.23;4.68;;;;;;;15.94;68.99;96886.50;5064646;28;20074;-65
2021/08/25 04:08:32;;;;;;;9.63;5.00;;;;;;;15.95;68.78;96890.09;5064891;28;20412;-65
2021/08/25 04:10:58;;;;;;;6.10;4.78;;;;;;;16.02;69.31;96893.63;5066700;28;20040;-61
2021/08/25 04:13:25;;;;;;;6.13;4.40;;;;;;;16.05;68.85;96881.63;5084920;28;20131;-65
2021/08/25 04:15:52;;;;;;;7.72;5.25;;;;;;;15.82;69.33;96870.19;5084631;28;20044;-65
2021/08/25 04:18:19;;;;;;;10.48;5.82;;;;;;;15.97;69.23;96891.25;5084885;28;20062;-62
2021/08/25 04:20:46;;;;;;;14.00;7.57;;;;;;;15.80;68.94;96841.09;5084668;28;20044;-66
2021/08/25 04:23:13;;;;;;;11.05;6.07;;;;;;;16.19;68.59;96892.69;5083702;28;20052;-61
2021/08/25 04:25:43;;;;;;;5.88;5.13;;;;;;;16.17;68.30;96889.50;5084643;28;20052;-61
2021/08/25 04:28:10;;;;;;;8.50;4.57;;;;;;;16.00;67.90;96845.72;5084130;28;20088;-60
2021/08/25 04:30:37;;;;;;;9.30;4.75;;;;;;;16.31;67.69;96872.63;5084266;28;20071;-62
2021/08/25 04:33:04;;;;;;;10.10;4.75;;;;;;;16.51;67.58;96886.88;5082523;28;20048;-60
2021/08/25 04:35:31;;;;;;;11.45;5.10;;;;;;;16.63;67.91;96893.97;5083977;28;20052;-61
2021/08/25 04:37:57;;;;;;;9.32;5.38;;;;;;;16.74;67.25;96889.06;5084620;28;20056;-60
2021/08/25 04:40:24;;;;;;;10.73;5.72;;;;;;;16.87;66.46;96906.91;5082838;28;20055;-61
2021/08/25 04:42:51;;;;;;;9.90;5.30;;;;;;;17.00;65.62;96885.59;5083743;28;20055;-62
2021/08/25 04:45:18;;;;;;;10.85;5.25;;;;;;;17.11;64.90;96875.88;5084219;28;20056;-65
2021/08/25 04:47:44;;;;;;;5.70;4.60;;;;;;;17.14;64.13;96857.44;5084237;28;20056;-66
2021/08/25 04:50:11;;;;;;;10.02;4.85;;;;;;;17.23;64.56;96877.34;5083917;28;20048;-62
2021/08/25 04:52:38;;;;;;;11.90;5.45;;;;;;;17.36;64.00;96887.59;5083586;28;20528;-61
2021/08/25 04:55:05;;;;;;;9.35;5.20;;;;;;;17.41;63.45;96855.53;5083519;28;20059;-61
2021/08/25 04:57:32;;;;;;;14.98;4.60;;;;;;;17.57;62.44;96847.34;5082418;28;20075;-67
2021/08/25 04:59:59;;;;;;;4.25;3.78;;;;;;;17.88;61.43;96868.50;5083996;28;20510;-61
2021/08/25 05:02:26;;;;;;;13.48;4.22;;;;;;;17.86;61.09;96859.75;5083826;28;20066;-61
2021/08/25 05:04:52;;;;;;;9.95;4.35;;;;;;;17.91;60.68;96856.44;5084072;28;20047;-59
2021/08/25 05:07:19;;;;;;;11.00;4.30;;;;;;;17.80;59.87;96805.38;5083540;28;20050;-59
2021/08/25 05:09:46;;;;;;;5.18;4.10;;;;;;;18.17;59.86;96857.66;5083519;28;20048;-66
2021/08/25 05:12:15;;;;;;;7.75;4.60;;;;;;;18.25;59.00;96853.53;5069922;28;20435;-65
2021/08/25 05:14:42;;;;;;;7.50;4.20;;;;;;;18.51;58.16;96855.56;5063432;28;20053;-65
2021/08/25 05:17:09;;;;;;;5.70;4.47;;;;;;;18.59;57.84;96852.19;5063993;28;20056;-66
2021/08/25 05:19:35;;;;;;;9.38;4.30;;;;;;;18.76;58.08;96823.00;5063749;28;20052;-60
2021/08/25 05:22:02;;;;;;;6.97;4.88;;;;;;;18.87;59.07;96828.44;5061849;28;20049;-59
2021/08/25 05:24:29;;;;;;;8.32;5.70;;;;;;;18.85;60.09;96820.44;5063493;28;20419;-66
2021/08/25 05:26:56;;;;;;;7.60;5.68;;;;;;;19.15;59.95;96834.28;5062985;28;20450;-60
2021/08/25 05:29:22;;;;;;;6.40;5.10;;;;;;;19.31;59.94;96831.59;5063658;28;20063;-66
2021/08/25 05:31:49;;;;;;;7.95;5.07;;;;;;;19.55;59.82;96830.25;5063527;28;20062;-65
2021/08/25 05:34:16;;;;;;;10.98;4.75;;;;;;;19.76;58.81;96822.59;5063857;28;20055;-60
2021/08/25 05:36:42;;;;;;;7.28;5.25;;;;;;;19.89;58.64;96826.31;5067579;28;20053;-65
2021/08/25 05:39:13;;;;;;;6.80;4.70;;;;;;;20.01;57.40;96817.97;5070321;28;20269;-62
2021/08/25 05:41:39;;;;;;;5.60;4.95;;;;;;;18.24;55.58;96502.25;5067339;28;20495;-60
2021/08/25 05:44:06;;;;;;;12.25;4.85;;;;;;;20.42;54.86;96820.25;5073669;28;20047;-60
2021/08/25 05:46:34;;;;;;;6.03;4.85;;;;;;;20.27;53.84;96782.44;5066875;28;20053;-60
2021/08/25 05:49:01;;;;;;;11.75;4.78;;;;;;;20.36;54.79;96774.19;5076071;28;20599;-57
2021/08/25 05:51:28;;;;;;;7.68;4.93;;;;;;;19.23;56.21;96622.31;5087070;28;20044;-65
2021/08/25 05:53:54;;;;;;;9.45;5.60;;;;;;;20.09;57.83;96818.63;5075191;28;20048;-62
2021/08/25 05:56:21;;;;;;;7.18;4.80;;;;;;;20.56;55.09;96808.63;5071961;28;20511;-68
2021/08/25 05:58:48;;;;;;;10.75;4.97;;;;;;;20.77;55.66;96797.59;5066271;28;20591;-66
2021/08/25 06:01:15;;;;;;;5.65;4.40;;;;;;;20.63;52.17;96746.50;5078402;28;20085;-59
2021/08/25 06:03:43;;;;;;;8.10;4.20;;;;;;;20.90;52.39;96766.66;5086121;28;20070;-61
2021/08/25 06:06:13;;;;;;;7.05;4.80;;;;;;;21.33;51.63;96806.50;5083156;28;20071;-59
2021/08/25 06:08:40;;;;;;;8.55;4.97;;;;;;;21.48;50.80;96813.31;5066635;28;20056;-67
2021/08/25 06:11:07;;;;;;;12.70;4.30;;;;;;;21.74;49.89;96831.88;5066818;28;20049;-62
2021/08/25 06:13:38;;;;;;;9.13;5.25;;;;;;;21.63;50.87;96775.00;5067224;28;20048;-60
2021/08/25 06:16:05;;;;;;;9.98;5.32;;;;;;;21.95;51.08;96814.31;5076134;28;20074;-64
2021/08/25 06:18:32;;;;;;;11.25;5.43;;;;;;;22.26;50.53;96818.16;5066408;28;20498;-65
2021/08/25 06:20:59;;;;;;;15.70;4.50;;;;;;;22.53;49.96;96808.44;5067159;28;20157;-66
2021/08/25 06:23:26;;;;;;;8.75;4.75;;;;;;;21.01;49.10;96563.63;5076785;28;20048;-65
2021/08/25 06:25:53;;;;;;;10.40;5.03;;;;;;;23.07;47.29;96787.16;5067903;28;20571;-67
2021/08/25 06:28:20;;;;;;;5.70;4.55;;;;;;;23.23;47.19;96794.66;5066356;28;20060;-62
2021/08/25 06:30:46;;;;;;;6.25;4.25;;;;;;;23.18;46.01;96786.75;5066435;28;20048;-63
2021/08/25 06:33:13;;;;;;;6.25;4.93;;;;;;;20.86;46.98;96456.25;5072293;28;20044;-62
2021/08/25 06:35:40;;;;;;;11.65;5.47;;;;;;;23.29;46.81;96799.28;5073716;28;20062;-61
2021/08/25 06:38:07;;;;;;;7.43;5.30;;;;;;;23.28;46.11;96751.69;5075243;28;20458;-65
2021/08/25 06:40:33;;;;;;;10.90;5.82;;;;;;;23.04;47.81;96686.34;5072024;28;20078;-66
2021/08/25 06:43:00;;;;;;;9.48;6.10;;;;;;;23.90;47.50;96795.72;5076689;28;20056;-61
2021/08/25 06:45:27;;;;;;;10.63;6.15;;;;;;;23.49;46.37;96677.38;5075867;28;20105;-61
2021/08/25 06:47:54;;;;;;;8.50;5.68;;;;;;;23.72;46.27;96707.94;5074531;28;20045;-61
2021/08/25 06:50:21;;;;;;;8.07;5.35;;;;;;;23.34;46.29;96648.06;5079747;28;20481;-62
2021/08/25 06:52:48;;;;;;;5.90;5.07;;;;;;;24.22;45.55;96766.97;5070626;28;20037;-68
2021/08/25 06:55:15;;;;;;;6.00;5.40;;;;;;;24.42;44.66;96778.66;5065560;28;20052;-61
2021/08/25 06:57:42;;;;;;;7.25;5.10;;;;;;;24.39;45.22;96788.09;5075250;28;20056;-67
2021/08/25 07:00:09;;;;;;;7.20;5.28;;;;;;;23.94;44.75;96787.91;5073388;28;20155;-61
2021/08/25 07:02:36;;;;;;;8.15;5.95;;;;;;;23.03;45.28;96681.94;5076533;28;20048;-60
2021/08/25 07:05:05;;;;;;;10.82;6.95;;;;;;;24.00;45.39;96763.41;5081415;28;20431;-60
2021/08/25 07:07:32;;;;;;;8.68;5.43;;;;;;;23.80;44.89;96720.56;5070045;28;20048;-60
2021/08/25 07:09:59;;;;;;;6.03;5.30;;;;;;;24.35;44.19;96761.19;5086266;28;20056;-63
2021/08/25 07:12:26;;;;;;;7.15;5.25;;;;;;;24.62;43.15;96730.88;5075020;28;20127;-61
2021/08/25 07:14:54;;;;;;;7.95;5.10;;;;;;;24.33;42.92;96673.09;5071102;28;20044;-63
2021/08/25 07:17:25;;;;;;;5.50;5.00;;;;;;;24.40;42.52;96667.13;5064580;28;20488;-66
2021/08/25 07:19:51;;;;;;;6.05;4.78;;;;;;;25.22;42.59;96751.69;5076082;28;20051;-65
2021/08/25 07:22:18;;;;;;;4.95;4.45;;;;;;;25.27;42.19;96773.75;5071110;28;20059;-64
2021/08/25 07:24:45;;;;;;;5.88;5.10;;;;;;;25.80;41.13;96781.91;5069682;28;20425;-60
2021/08/25 07:27:12;;;;;;;5.68;5.00;;;;;;;25.95;41.06;96758.03;5064527;28;20058;-65
2021/08/25 07:29:38;;;;;;;8.50;5.03;;;;;;;26.28;39.90;96786.47;5077457;28;20056;-61
2021/08/25 07:32:06;;;;;;;15.40;7.63;;;;;;;25.50;40.17;96692.13;5070898;28;20382;-62
2021/08/25 07:34:33;;;;;;;6.22;5.63;;;;;;;25.62;40.58;96745.03;5074928;28;20573;-60
2021/08/25 07:37:01;;;;;;;9.38;6.50;;;;;;;24.11;40.83;96463.75;5067949;28;20058;-61
2021/08/25 07:39:28;;;;;;;6.78;4.75;;;;;;;26.07;40.67;96781.81;5083177;28;20087;-62
2021/08/25 07:41:54;;;;;;;9.60;5.32;;;;;;;26.44;40.28;96780.41;5064398;28;20048;-67
2021/08/25 07:44:21;;;;;;;6.63;5.18;;;;;;;25.69;39.33;96676.63;5072111;28;20047;-61
2021/08/25 07:46:49;;;;;;;5.07;4.63;;;;;;;26.29;38.91;96734.06;5072611;28;20078;-61
2021/08/25 07:49:16;;;;;;;8.93;5.68;;;;;;;26.20;38.49;96705.72;5081778;28;20139;-65
2021/08/25 07:51:43;;;;;;;6.13;5.13;;;;;;;26.91;37.89;96782.50;5065275;28;20131;-60
2021/08/25 07:54:09;;;;;;;7.40;5.47;;;;;;;26.56;37.87;96714.00;5075174;28;20048;-61
2021/08/25 07:56:36;;;;;;;9.32;7.35;;;;;;;27.22;38.57;96775.13;5065828;28;20052;-63
2021/08/25 07:59:03;;;;;;;5.72;5.22;;;;;;;26.89;38.30;96777.28;5063618;28;20143;-59
2021/08/25 08:01:30;;;;;;;13.60;7.85;;;;;;;26.68;38.40;96701.66;5064764;28;20092;-68
2021/08/25 08:03:57;;;;;;;10.27;7.43;;;;;;;26.71;39.08;96712.06;5081147;28;20051;-64
2021/08/25 08:06:24;;;;;;;9.38;8.05;;;;;;;27.32;38.20;96748.22;5067300;28;20074;-69
2021/08/25 08:08:51;;;;;;;6.78;5.85;;;;;;;27.06;38.31;96670.38;5076603;28;20502;-67
2021/08/25 08:11:18;;;;;;;12.68;7.82;;;;;;;27.91;37.78;96758.38;5084089;28;20128;-62
2021/08/25 08:13:45;;;;;;;5.85;5.30;;;;;;;27.29;38.09;96763.41;5077537;28;20051;-60
2021/08/25 08:16:19;;;;;;;9.68;7.47;;;;;;;27.53;38.89;96758.44;5067741;28;20084;-59
2021/08/25 08:19:03;;;;;;;8.07;7.20;;;;;;;27.14;38.31;96761.78;5072554;28;20054;-62
2021/08/25 08:21:30;;;;;;;6.53;5.85;;;;;;;27.50;37.96;96756.59;5077156;28;20048;-60
2021/08/25 08:23:58;;;;;;;9.68;5.40;;;;;;;27.45;37.88;96765.81;5072173;28;20489;-62
2021/08/25 08:26:27;;;;;;;5.70;5.18;;;;;;;27.71;37.40;96761.09;5071645;28;20384;-66
2021/08/25 08:28:55;;;;;;;10.80;9.20;;;;;;;27.91;37.55;96758.38;5065027;28;20060;-60
2021/08/25 08:31:22;;;;;;;7.68;5.97;;;;;;;28.05;37.65;96731.94;5062036;28;20515;-65
2021/08/25 08:33:49;;;;;;;8.70;6.80;;;;;;;28.10;36.71;96742.66;5061863;28;20095;-66
2021/08/25 08:36:16;;;;;;;9.50;7.85;;;;;;;27.90;37.49;96739.72;5061992;28;20045;-66
2021/08/25 08:38:43;;;;;;;5.93;5.43;;;;;;;27.78;36.74;96692.38;5073173;28;20081;-62
2021/08/25 08:41:10;;;;;;;5.43;5.00;;;;;;;28.43;36.61;96747.28;5068056;28;20052;-64
2021/08/25 08:43:43;;;;;;;8.80;5.82;;;;;;;28.52;36.88;96744.31;5064599;28;20047;-60
2021/08/25 08:46:16;;;;;;;9.38;7.40;;;;;;;28.23;37.08;96741.53;5070208;28;20139;-62
2021/08/25 08:48:44;;;;;;;7.38;5.50;;;;;;;28.17;36.58;96673.84;5083029;28;20066;-58
2021/08/25 08:51:16;;;;;;;7.78;5.15;;;;;;;28.39;35.75;96692.56;5077710;28;20139;-64
2021/08/25 08:53:43;;;;;;;6.15;5.47;;;;;;;28.74;35.46;96745.41;5062807;28;20053;-60
2021/08/25 08:56:11;;;;;;;6.97;5.35;;;;;;;28.87;34.70;96730.81;5075303;28;20113;-63
2021/08/25 08:58:39;;;;;;;14.00;6.35;;;;;;;28.92;35.40;96728.03;5079283;28;20562;-60
2021/08/25 09:01:07;;;;;;;12.65;11.45;;;;;;;28.51;36.83;96734.22;5068953;28;20055;-59
2021/08/25 09:03:39;;;;;;;13.35;12.00;;;;;;;28.11;37.15;96715.72;5067792;28;20056;-66
2021/08/25 09:06:08;;;;;;;11.65;10.63;;;;;;;28.13;36.71;96713.19;5070027;28;20064;-59
2021/08/25 09:08:37;;;;;;;12.68;10.02;;;;;;;28.12;37.06;96711.59;5081995;28;20044;-59
2021/08/25 09:11:07;;;;;;;6.20;5.60;;;;;;;27.88;37.46;96708.09;5079026;28;20106;-60
2021/08/25 09:13:38;;;;;;;7.15;6.55;;;;;;;28.40;36.73;96696.97;5075102;28;20070;-61
2021/08/25 09:16:06;;;;;;;10.98;8.98;;;;;;;28.86;35.41;96700.72;5068767;28;20396;-61
2021/08/25 09:18:34;;;;;;;6.38;5.78;;;;;;;28.51;36.16;96692.25;5066838;28;20494;-60
2021/08/25 09:21:01;;;;;;;6.43;5.88;;;;;;;28.90;35.92;96670.72;5069002;28;20063;-58
2021/08/25 09:23:30;;;;;;;9.25;7.45;;;;;;;29.12;35.57;96667.34;5067116;28;20052;-62
2021/08/25 09:26:00;;;;;;;5.90;5.30;;;;;;;28.39;34.75;96644.13;5061476;28;20181;-61
2021/08/25 09:28:33;;;;;;;7.90;7.03;;;;;;;29.10;34.89;96678.50;5061730;28;20084;-62
2021/08/25 09:31:00;;;;;;;7.30;5.97;;;;;;;29.00;35.03;96671.34;5064609;28;20048;-60
2021/08/25 09:33:29;;;;;;;6.55;5.95;;;;;;;28.61;35.31;96627.31;5068180;28;20529;-58
2021/08/25 09:35:59;;;;;;;8.73;7.78;;;;;;;29.36;34.43;96676.41;5069105;28;20109;-59
2021/08/25 09:38:27;;;;;;;9.15;7.47;;;;;;;29.74;33.68;96667.47;5076780;28;20048;-61
2021/08/25 09:40:58;;;;;;;9.30;7.43;;;;;;;30.07;33.05;96656.28;5082293;28;20455;-60
2021/08/25 09:43:41;;;;;;;9.38;7.13;;;;;;;30.14;32.89;96612.97;5082558;28;20050;-62
2021/08/25 09:46:14;;;;;;;;;;;;;;;29.55;33.22;96654.81;5081851;28;20060;-63
2021/08/25 09:48:50;;;;;;;7.45;6.75;;;;;;;29.23;33.46;96627.50;5082699;28;19923;-60
2021/08/25 09:51:19;;;;;;;8.95;7.85;;;;;;;29.14;34.23;96579.97;5082575;28;20450;-61
2021/08/25 09:53:50;;;;;;;8.77;6.80;;;;;;;30.28;32.27;96654.91;5081647;28;20052;-62
2021/08/25 09:56:32;;;;;;;6.75;5.18;;;;;;;30.51;31.20;96615.75;5083335;28;20058;-60
2021/08/25 09:59:00;;;;;;;6.07;5.35;;;;;;;31.11;30.72;96657.38;5082174;28;20052;-62
2021/08/25 10:01:28;;;;;;;10.60;9.50;;;;;;;30.75;31.42;96659.03;5082405;28;20062;-61
2021/08/25 10:03:59;;;;;;;6.80;5.35;;;;;;;31.04;30.86;96650.06;5081634;28;20110;-62
2021/08/25 10:06:26;;;;;;;8.73;6.30;;;;;;;29.06;30.40;96398.31;5082577;28;20052;-63
2021/08/25 10:08:54;;;;;;;7.60;6.95;;;;;;;30.90;29.66;96651.06;5083031;28;20098;-61
2021/08/25 10:11:25;;;;;;;6.75;6.07;;;;;;;30.85;30.36;96664.06;5081000;28;20055;-63
2021/08/25 10:13:52;;;;;;;7.07;6.18;;;;;;;30.64;30.23;96608.28;5078173;28;20045;-63
2021/08/25 10:16:38;;;;;;;6.72;6.13;;;;;;;30.75;29.43;96648.38;5061941;28;20140;-62
2021/08/25 10:19:29;;;;;;;8.40;7.00;;;;;;;30.42;30.97;96645.38;5063231;28;20052;-63
2021/08/25 10:21:59;;;;;;;6.90;5.13;;;;;;;30.70;30.02;96628.31;5064408;28;20088;-63
2021/08/25 10:24:26;;;;;;;6.72;6.00;;;;;;;30.33;30.03;96579.84;5066904;28;20048;-62
2021/08/25 10:26:59;;;;;;;6.35;5.85;;;;;;;30.82;29.56;96627.91;5066194;28;20064;-65
2021/08/25 10:29:27;;;;;;;7.50;5.88;;;;;;;30.57;29.25;96551.56;5064936;28;20056;-57
2021/08/25 10:31:54;;;;;;;10.73;6.78;;;;;;;31.32;29.25;96632.97;5064699;28;20063;-62
2021/08/25 10:34:28;;;;;;;9.10;6.47;;;;;;;31.81;28.63;96623.63;5070307;28;20052;-61
2021/08/25 10:37:19;;;;;;;9.10;8.02;;;;;;;32.02;27.84;96622.88;5070952;28;20068;-60
2021/08/25 10:39:56;;;;;;;5.93;5.32;;;;;;;30.85;29.60;96566.00;5070006;28;20059;-61
2021/08/25 10:42:45;;;;;;;6.05;5.45;;;;;;;30.63;29.31;96623.91;5068249;28;20056;-60
2021/08/25 10:45:14;;;;;;;7.95;5.88;;;;;;;31.03;29.04;96619.09;5072064;28;20051;-63
2021/08/25 10:47:58;;;;;;;6.43;5.80;;;;;;;31.20;28.70;96565.53;5070257;28;20048;-60
2021/08/25 10:50:52;;;;;;;5.82;5.32;;;;;;;31.60;28.18;96628.06;5066176;28;20048;-62
2021/08/25 10:53:28;;;;;;;5.80;5.40;;;;;;;31.39;28.03;96615.28;5079615;28;20044;-65
2021/08/25 10:56:15;;;;;;;5.45;5.05;;;;;;;31.67;28.35;96607.47;5084331;28;20139;-66
2021/08/25 10:58:51;;;;;;;6.25;5.47;;;;;;;31.84;28.93;96599.69;5085982;28;20059;-61
2021/08/25 11:01:31;;;;;;;5.85;5.35;;;;;;;31.68;28.78;96600.47;5086543;28;20063;-60
2021/08/25 11:03:59;;;;;;;6.25;5.65;;;;;;;31.78;29.38;96596.81;5085069;28;20056;-59
2021/08/25 11:06:35;;;;;;;10.23;7.45;;;;;;;32.22;29.66;96590.22;5063932;28;20511;-60
2021/08/25 11:09:32;;;;;;;6.40;5.80;;;;;;;31.87;28.42;96587.16;5065858;28;20110;-59
2021/08/25 11:12:00;;;;;;;6.65;5.50;;;;;;;31.92;28.75;96583.53;5066125;28;20056;-65
2021/08/25 11:14:38;;;;;;;10.13;9.07;;;;;;;32.40;28.78;96575.34;5066167;28;20053;-65
2021/08/25 11:17:35;;;;;;;7.80;6.07;;;;;;;32.06;28.03;96570.97;5063467;28;20071;-65
2021/08/25 11:20:07;;;;;;;9.32;6.68;;;;;;;31.61;29.31;96553.06;5060542;28;20052;-66
2021/08/25 11:22:36;;;;;;;6.43;5.82;;;;;;;31.51;28.85;96559.56;5065500;28;20130;-63
2021/08/25 11:25:09;;;;;;;6.15;5.65;;;;;;;31.21;29.30;96561.34;5065796;28;20501;-61
2021/08/25 11:27:43;;;;;;;6.90;6.20;;;;;;;30.70;30.52;96554.75;5063950;28;20350;-66
2021/08/25 11:30:24;;;;;;;9.48;7.55;;;;;;;31.55;29.92;96554.38;5065044;28;20049;-66
2021/08/25 11:33:08;;;;;;;5.95;5.35;;;;;;;31.12;29.49;96484.34;5063591;28;20045;-60
2021/08/25 11:35:37;;;;;;;6.63;6.13;;;;;;;32.21;29.58;96554.28;5064936;28;20048;-64
2021/08/25 11:38:11;;;;;;;6.32;5.80;;;;;;;32.45;29.30;96545.88;5064882;28;20044;-64
2021/08/25 11:40:40;;;;;;;7.78;6.95;;;;;;;32.42;29.33;96540.41;5064260;28;20074;-64